sensor_id;sensor_type;location;lat;lon;timestamp;P1;durP1;ratioP1;P2;durP2;ratioP2
71196;SDS011;58918;51.652;4.864;2023-07-09T00:00:03;6.88;;;3.15;;
71196;SDS011;58918;51.652;4.864;2023-07-09T00:02:30;8.52;;;3.65;;
71196;SDS011;58918;51.652;4.864;2023-07-09T00:04:58;6.72;;;3.33;;
71196;SDS011;58918;51.652;4.864;2023-07-09T00:07:29;10.25;;;3.38;;
71196;SDS011;58918;51.652;4.864;2023-07-09T00:09:57;7.20;;;3.67;;
71196;SDS011;58918;51.652;4.864;2023-07-09T00:12:24;6.57;;;2.90;;
71196;SDS011;58918;51.652;4.864;2023-07-09T00:14:52;7.22;;;3.50;;
71196;SDS011;58918;51.652;4.864;2023-07-09T00:19:48;9.13;;;3.28;;
71196;SDS011;58918;51.652;4.864;2023-07-09T00:22:16;8.45;;;3.75;;
71196;SDS011;58918;51.652;4.864;2023-07-09T00:24:49;8.05;;;3.42;;
71196;SDS011;58918;51.652;4.864;2023-07-09T00:27:17;7.82;;;3.78;;
71196;SDS011;58918;51.652;4.864;2023-07-09T00:29:45;8.07;;;3.25;;
71196;SDS011;58918;51.652;4.864;2023-07-09T00:32:16;7.70;;;3.42;;
71196;SDS011;58918;51.652;4.864;2023-07-09T00:34:43;7.93;;;3.03;;
71196;SDS011;58918;51.652;4.864;2023-07-09T00:37:23;8.57;;;3.17;;
71196;SDS011;58918;51.652;4.864;2023-07-09T00:39:54;8.80;;;3.38;;
71196;SDS011;58918;51.652;4.864;2023-07-09T00:42:21;7.80;;;3.40;;
71196;SDS011;58918;51.652;4.864;2023-07-09T00:44:50;7.50;;;3.38;;
71196;SDS011;58918;51.652;4.864;2023-07-09T00:50:10;7.22;;;3.38;;
71196;SDS011;58918;51.652;4.864;2023-07-09T00:52:40;7.45;;;3.65;;
71196;SDS011;58918;51.652;4.864;2023-07-09T00:55:13;7.18;;;3.50;;
71196;SDS011;58918;51.652;4.864;2023-07-09T00:57:42;8.77;;;3.67;;
71196;SDS011;58918;51.652;4.864;2023-07-09T01:00:11;8.93;;;4.22;;
71196;SDS011;58918;51.652;4.864;2023-07-09T01:02:41;7.32;;;3.58;;
71196;SDS011;58918;51.652;4.864;2023-07-09T01:05:11;9.38;;;3.58;;
71196;SDS011;58918;51.652;4.864;2023-07-09T01:07:39;7.90;;;3.75;;
71196;SDS011;58918;51.652;4.864;2023-07-09T01:10:07;8.90;;;3.92;;
71196;SDS011;58918;51.652;4.864;2023-07-09T01:12:34;9.32;;;3.88;;
71196;SDS011;58918;51.652;4.864;2023-07-09T01:15:01;8.30;;;3.60;;
71196;SDS011;58918;51.652;4.864;2023-07-09T01:17:30;9.60;;;4.00;;
71196;SDS011;58918;51.652;4.864;2023-07-09T01:19:57;9.35;;;4.40;;
71196;SDS011;58918;51.652;4.864;2023-07-09T01:22:24;11.23;;;3.90;;
71196;SDS011;58918;51.652;4.864;2023-07-09T01:24:55;8.75;;;4.10;;
71196;SDS011;58918;51.652;4.864;2023-07-09T01:27:25;8.75;;;3.83;;
71196;SDS011;58918;51.652;4.864;2023-07-09T01:29:53;8.27;;;3.75;;
71196;SDS011;58918;51.652;4.864;2023-07-09T01:32:21;7.40;;;4.15;;
71196;SDS011;58918;51.652;4.864;2023-07-09T01:34:50;6.82;;;3.58;;
71196;SDS011;58918;51.652;4.864;2023-07-09T01:37:22;6.90;;;3.70;;
71196;SDS011;58918;51.652;4.864;2023-07-09T01:39:50;7.07;;;3.72;;
71196;SDS011;58918;51.652;4.864;2023-07-09T01:42:18;10.00;;;4.25;;
71196;SDS011;58918;51.652;4.864;2023-07-09T01:44:48;9.70;;;3.88;;
71196;SDS011;58918;51.652;4.864;2023-07-09T01:47:16;7.60;;;4.00;;
71196;SDS011;58918;51.652;4.864;2023-07-09T01:49:44;9.60;;;3.75;;
71196;SDS011;58918;51.652;4.864;2023-07-09T01:52:14;6.75;;;3.60;;
71196;SDS011;58918;51.652;4.864;2023-07-09T01:54:42;7.70;;;3.80;;
71196;SDS011;58918;51.652;4.864;2023-07-09T01:57:19;7.28;;;3.67;;
71196;SDS011;58918;51.652;4.864;2023-07-09T01:59:53;8.65;;;4.20;;
71196;SDS011;58918;51.652;4.864;2023-07-09T02:02:23;8.60;;;3.85;;
71196;SDS011;58918;51.652;4.864;2023-07-09T02:04:52;8.35;;;3.85;;
71196;SDS011;58918;51.652;4.864;2023-07-09T02:07:20;7.63;;;3.92;;
71196;SDS011;58918;51.652;4.864;2023-07-09T02:09:48;8.95;;;4.30;;
71196;SDS011;58918;51.652;4.864;2023-07-09T02:12:16;8.93;;;4.65;;
71196;SDS011;58918;51.652;4.864;2023-07-09T02:14:43;7.55;;;4.00;;
71196;SDS011;58918;51.652;4.864;2023-07-09T02:17:12;8.48;;;3.65;;
71196;SDS011;58918;51.652;4.864;2023-07-09T02:19:40;8.02;;;4.18;;
71196;SDS011;58918;51.652;4.864;2023-07-09T02:22:07;9.00;;;4.43;;
71196;SDS011;58918;51.652;4.864;2023-07-09T02:24:35;7.28;;;3.88;;
71196;SDS011;58918;51.652;4.864;2023-07-09T02:27:04;7.63;;;3.90;;
71196;SDS011;58918;51.652;4.864;2023-07-09T02:29:31;7.32;;;4.38;;
71196;SDS011;58918;51.652;4.864;2023-07-09T02:31:59;9.48;;;4.10;;
71196;SDS011;58918;51.652;4.864;2023-07-09T02:34:27;12.38;;;4.68;;
71196;SDS011;58918;51.652;4.864;2023-07-09T02:36:55;9.35;;;4.38;;
71196;SDS011;58918;51.652;4.864;2023-07-09T02:39:23;8.73;;;4.22;;
71196;SDS011;58918;51.652;4.864;2023-07-09T02:41:50;8.07;;;4.03;;
71196;SDS011;58918;51.652;4.864;2023-07-09T02:44:17;9.40;;;4.20;;
71196;SDS011;58918;51.652;4.864;2023-07-09T02:46:45;9.27;;;4.40;;
71196;SDS011;58918;51.652;4.864;2023-07-09T02:49:13;7.55;;;4.30;;
71196;SDS011;58918;51.652;4.864;2023-07-09T02:51:40;7.70;;;4.10;;
71196;SDS011;58918;51.652;4.864;2023-07-09T02:54:07;8.15;;;4.15;;
71196;SDS011;58918;51.652;4.864;2023-07-09T02:56:34;8.40;;;4.30;;
71196;SDS011;58918;51.652;4.864;2023-07-09T02:59:02;9.93;;;4.40;;
71196;SDS011;58918;51.652;4.864;2023-07-09T03:01:29;8.93;;;4.70;;
71196;SDS011;58918;51.652;4.864;2023-07-09T03:03:57;9.55;;;4.32;;
71196;SDS011;58918;51.652;4.864;2023-07-09T03:06:26;7.03;;;3.92;;
71196;SDS011;58918;51.652;4.864;2023-07-09T03:08:53;9.38;;;3.90;;
71196;SDS011;58918;51.652;4.864;2023-07-09T03:11:21;8.80;;;4.35;;
71196;SDS011;58918;51.652;4.864;2023-07-09T03:13:48;10.93;;;4.53;;
71196;SDS011;58918;51.652;4.864;2023-07-09T03:16:15;8.13;;;4.18;;
71196;SDS011;58918;51.652;4.864;2023-07-09T03:18:45;8.25;;;4.60;;
71196;SDS011;58918;51.652;4.864;2023-07-09T03:21:12;9.40;;;4.55;;
71196;SDS011;58918;51.652;4.864;2023-07-09T03:23:40;8.07;;;4.50;;
71196;SDS011;58918;51.652;4.864;2023-07-09T03:26:08;7.90;;;3.67;;
71196;SDS011;58918;51.652;4.864;2023-07-09T03:28:35;8.13;;;4.18;;
71196;SDS011;58918;51.652;4.864;2023-07-09T03:31:02;7.47;;;3.83;;
71196;SDS011;58918;51.652;4.864;2023-07-09T03:33:29;7.75;;;4.25;;
71196;SDS011;58918;51.652;4.864;2023-07-09T03:35:56;7.95;;;4.07;;
71196;SDS011;58918;51.652;4.864;2023-07-09T03:38:24;9.18;;;3.75;;
71196;SDS011;58918;51.652;4.864;2023-07-09T03:40:52;7.35;;;3.67;;
71196;SDS011;58918;51.652;4.864;2023-07-09T03:43:19;9.05;;;3.80;;
71196;SDS011;58918;51.652;4.864;2023-07-09T03:45:47;9.02;;;3.92;;
71196;SDS011;58918;51.652;4.864;2023-07-09T03:48:15;8.20;;;4.10;;
71196;SDS011;58918;51.652;4.864;2023-07-09T03:50:43;9.38;;;4.35;;
71196;SDS011;58918;51.652;4.864;2023-07-09T03:53:11;7.80;;;4.20;;
71196;SDS011;58918;51.652;4.864;2023-07-09T03:55:38;10.13;;;4.10;;
71196;SDS011;58918;51.652;4.864;2023-07-09T03:58:06;8.27;;;3.90;;
71196;SDS011;58918;51.652;4.864;2023-07-09T04:00:33;7.50;;;3.72;;
71196;SDS011;58918;51.652;4.864;2023-07-09T04:03:00;7.50;;;3.47;;
71196;SDS011;58918;51.652;4.864;2023-07-09T04:05:28;7.90;;;3.60;;
71196;SDS011;58918;51.652;4.864;2023-07-09T04:07:55;8.18;;;4.40;;
71196;SDS011;58918;51.652;4.864;2023-07-09T04:10:22;10.82;;;4.85;;
71196;SDS011;58918;51.652;4.864;2023-07-09T04:12:49;7.95;;;4.47;;
71196;SDS011;58918;51.652;4.864;2023-07-09T04:15:17;8.02;;;4.15;;
71196;SDS011;58918;51.652;4.864;2023-07-09T04:17:44;9.57;;;4.40;;
71196;SDS011;58918;51.652;4.864;2023-07-09T04:20:11;8.75;;;4.20;;
71196;SDS011;58918;51.652;4.864;2023-07-09T04:22:40;9.32;;;4.30;;
71196;SDS011;58918;51.652;4.864;2023-07-09T04:25:07;8.05;;;4.30;;
71196;SDS011;58918;51.652;4.864;2023-07-09T04:32:31;10.05;;;4.47;;
71196;SDS011;58918;51.652;4.864;2023-07-09T04:34:58;8.65;;;4.13;;
71196;SDS011;58918;51.652;4.864;2023-07-09T04:37:25;8.50;;;4.25;;
71196;SDS011;58918;51.652;4.864;2023-07-09T04:39:52;6.78;;;3.88;;
71196;SDS011;58918;51.652;4.864;2023-07-09T04:42:20;8.18;;;4.13;;
71196;SDS011;58918;51.652;4.864;2023-07-09T04:44:47;10.38;;;4.60;;
71196;SDS011;58918;51.652;4.864;2023-07-09T04:47:14;8.73;;;3.92;;
71196;SDS011;58918;51.652;4.864;2023-07-09T04:49:41;10.50;;;4.38;;
71196;SDS011;58918;51.652;4.864;2023-07-09T04:52:09;8.43;;;4.20;;
71196;SDS011;58918;51.652;4.864;2023-07-09T04:54:39;8.45;;;4.35;;
71196;SDS011;58918;51.652;4.864;2023-07-09T04:57:10;6.78;;;4.00;;
71196;SDS011;58918;51.652;4.864;2023-07-09T04:59:37;11.50;;;3.88;;
71196;SDS011;58918;51.652;4.864;2023-07-09T05:02:04;13.68;;;3.97;;
71196;SDS011;58918;51.652;4.864;2023-07-09T05:04:32;11.05;;;4.32;;
71196;SDS011;58918;51.652;4.864;2023-07-09T05:06:59;9.23;;;4.18;;
71196;SDS011;58918;51.652;4.864;2023-07-09T05:09:26;13.18;;;4.43;;
71196;SDS011;58918;51.652;4.864;2023-07-09T05:11:54;11.38;;;4.05;;
71196;SDS011;58918;51.652;4.864;2023-07-09T05:14:21;13.35;;;3.60;;
71196;SDS011;58918;51.652;4.864;2023-07-09T05:16:48;8.63;;;4.20;;
71196;SDS011;58918;51.652;4.864;2023-07-09T05:19:15;8.63;;;4.18;;
71196;SDS011;58918;51.652;4.864;2023-07-09T05:21:43;9.93;;;4.28;;
71196;SDS011;58918;51.652;4.864;2023-07-09T05:24:10;7.97;;;4.28;;
71196;SDS011;58918;51.652;4.864;2023-07-09T05:26:37;10.07;;;3.97;;
71196;SDS011;58918;51.652;4.864;2023-07-09T05:29:05;9.35;;;4.80;;
71196;SDS011;58918;51.652;4.864;2023-07-09T05:31:32;11.85;;;5.05;;
71196;SDS011;58918;51.652;4.864;2023-07-09T05:33:59;10.07;;;4.40;;
71196;SDS011;58918;51.652;4.864;2023-07-09T05:36:27;9.30;;;4.43;;
71196;SDS011;58918;51.652;4.864;2023-07-09T05:38:55;8.48;;;4.43;;
71196;SDS011;58918;51.652;4.864;2023-07-09T05:41:22;9.65;;;4.88;;
71196;SDS011;58918;51.652;4.864;2023-07-09T05:43:50;12.32;;;6.82;;
71196;SDS011;58918;51.652;4.864;2023-07-09T05:46:18;11.25;;;6.65;;
71196;SDS011;58918;51.652;4.864;2023-07-09T05:48:46;14.27;;;7.85;;
71196;SDS011;58918;51.652;4.864;2023-07-09T05:51:13;10.63;;;6.18;;
71196;SDS011;58918;51.652;4.864;2023-07-09T05:53:40;10.48;;;5.53;;
71196;SDS011;58918;51.652;4.864;2023-07-09T05:56:07;14.65;;;6.07;;
71196;SDS011;58918;51.652;4.864;2023-07-09T05:58:35;15.88;;;7.13;;
71196;SDS011;58918;51.652;4.864;2023-07-09T06:01:02;13.15;;;6.95;;
71196;SDS011;58918;51.652;4.864;2023-07-09T06:03:29;12.15;;;5.80;;
71196;SDS011;58918;51.652;4.864;2023-07-09T06:05:57;12.50;;;6.03;;
71196;SDS011;58918;51.652;4.864;2023-07-09T06:08:26;11.15;;;6.15;;
71196;SDS011;58918;51.652;4.864;2023-07-09T06:10:54;13.02;;;5.78;;
71196;SDS011;58918;51.652;4.864;2023-07-09T06:13:22;11.90;;;6.38;;
71196;SDS011;58918;51.652;4.864;2023-07-09T06:15:50;12.48;;;6.20;;
71196;SDS011;58918;51.652;4.864;2023-07-09T06:18:18;10.63;;;5.70;;
71196;SDS011;58918;51.652;4.864;2023-07-09T06:20:50;10.93;;;5.78;;
71196;SDS011;58918;51.652;4.864;2023-07-09T06:23:18;9.85;;;5.53;;
71196;SDS011;58918;51.652;4.864;2023-07-09T06:25:45;10.48;;;6.00;;
71196;SDS011;58918;51.652;4.864;2023-07-09T06:28:18;10.30;;;5.47;;
71196;SDS011;58918;51.652;4.864;2023-07-09T06:30:45;13.48;;;6.00;;
71196;SDS011;58918;51.652;4.864;2023-07-09T06:33:13;12.80;;;6.47;;
71196;SDS011;58918;51.652;4.864;2023-07-09T06:35:47;12.23;;;5.63;;
71196;SDS011;58918;51.652;4.864;2023-07-09T06:38:15;10.55;;;5.13;;
71196;SDS011;58918;51.652;4.864;2023-07-09T06:40:43;11.20;;;6.32;;
71196;SDS011;58918;51.652;4.864;2023-07-09T06:43:10;14.05;;;6.38;;
71196;SDS011;58918;51.652;4.864;2023-07-09T06:45:37;11.68;;;5.80;;
71196;SDS011;58918;51.652;4.864;2023-07-09T06:48:05;9.45;;;5.68;;
71196;SDS011;58918;51.652;4.864;2023-07-09T06:50:40;11.63;;;5.80;;
71196;SDS011;58918;51.652;4.864;2023-07-09T06:53:08;8.23;;;5.20;;
71196;SDS011;58918;51.652;4.864;2023-07-09T06:55:35;10.27;;;5.03;;
71196;SDS011;58918;51.652;4.864;2023-07-09T06:58:03;10.38;;;5.40;;
71196;SDS011;58918;51.652;4.864;2023-07-09T07:00:30;10.07;;;5.50;;
71196;SDS011;58918;51.652;4.864;2023-07-09T07:02:57;8.15;;;4.90;;
71196;SDS011;58918;51.652;4.864;2023-07-09T07:05:25;9.80;;;5.15;;
71196;SDS011;58918;51.652;4.864;2023-07-09T07:07:52;9.20;;;5.20;;
71196;SDS011;58918;51.652;4.864;2023-07-09T07:10:20;11.48;;;5.63;;
71196;SDS011;58918;51.652;4.864;2023-07-09T07:12:47;9.73;;;5.50;;
71196;SDS011;58918;51.652;4.864;2023-07-09T07:15:16;8.00;;;4.85;;
71196;SDS011;58918;51.652;4.864;2023-07-09T07:17:43;10.70;;;5.15;;
71196;SDS011;58918;51.652;4.864;2023-07-09T07:20:12;9.20;;;5.43;;
71196;SDS011;58918;51.652;4.864;2023-07-09T07:22:39;8.85;;;6.13;;
71196;SDS011;58918;51.652;4.864;2023-07-09T07:25:07;9.35;;;5.15;;
71196;SDS011;58918;51.652;4.864;2023-07-09T07:27:34;8.88;;;5.03;;
71196;SDS011;58918;51.652;4.864;2023-07-09T07:30:02;11.77;;;5.03;;
71196;SDS011;58918;51.652;4.864;2023-07-09T07:32:29;10.32;;;5.15;;
71196;SDS011;58918;51.652;4.864;2023-07-09T07:34:56;12.20;;;5.35;;
71196;SDS011;58918;51.652;4.864;2023-07-09T07:37:23;7.68;;;4.55;;
71196;SDS011;58918;51.652;4.864;2023-07-09T07:39:50;9.25;;;5.63;;
71196;SDS011;58918;51.652;4.864;2023-07-09T07:42:18;9.30;;;4.72;;
71196;SDS011;58918;51.652;4.864;2023-07-09T07:44:45;8.65;;;4.32;;
71196;SDS011;58918;51.652;4.864;2023-07-09T07:47:13;10.15;;;5.03;;
71196;SDS011;58918;51.652;4.864;2023-07-09T07:49:40;9.65;;;4.90;;
71196;SDS011;58918;51.652;4.864;2023-07-09T07:52:07;7.95;;;4.63;;
71196;SDS011;58918;51.652;4.864;2023-07-09T07:54:37;8.13;;;4.88;;
71196;SDS011;58918;51.652;4.864;2023-07-09T07:57:04;10.57;;;5.43;;
71196;SDS011;58918;51.652;4.864;2023-07-09T07:59:31;9.65;;;5.00;;
71196;SDS011;58918;51.652;4.864;2023-07-09T08:02:01;9.43;;;4.85;;
71196;SDS011;58918;51.652;4.864;2023-07-09T08:04:29;8.07;;;4.65;;
71196;SDS011;58918;51.652;4.864;2023-07-09T08:06:56;12.02;;;5.50;;
71196;SDS011;58918;51.652;4.864;2023-07-09T08:09:24;8.20;;;4.90;;
71196;SDS011;58918;51.652;4.864;2023-07-09T08:11:52;9.45;;;4.47;;
71196;SDS011;58918;51.652;4.864;2023-07-09T08:14:22;8.45;;;4.75;;
71196;SDS011;58918;51.652;4.864;2023-07-09T08:16:49;9.55;;;5.00;;
71196;SDS011;58918;51.652;4.864;2023-07-09T08:19:18;9.13;;;5.20;;
71196;SDS011;58918;51.652;4.864;2023-07-09T08:26:40;9.02;;;5.05;;
71196;SDS011;58918;51.652;4.864;2023-07-09T08:29:08;8.85;;;4.20;;
71196;SDS011;58918;51.652;4.864;2023-07-09T08:31:35;8.00;;;4.63;;
71196;SDS011;58918;51.652;4.864;2023-07-09T08:34:04;8.27;;;4.30;;
71196;SDS011;58918;51.652;4.864;2023-07-09T08:36:32;10.13;;;5.35;;
71196;SDS011;58918;51.652;4.864;2023-07-09T08:39:02;7.80;;;4.45;;
71196;SDS011;58918;51.652;4.864;2023-07-09T08:49:18;9.60;;;5.43;;
71196;SDS011;58918;51.652;4.864;2023-07-09T08:51:46;10.15;;;4.90;;
71196;SDS011;58918;51.652;4.864;2023-07-09T08:54:21;8.75;;;5.28;;
71196;SDS011;58918;51.652;4.864;2023-07-09T08:56:54;8.40;;;5.07;;
71196;SDS011;58918;51.652;4.864;2023-07-09T08:59:25;9.38;;;5.40;;
71196;SDS011;58918;51.652;4.864;2023-07-09T09:01:53;7.82;;;4.90;;
71196;SDS011;58918;51.652;4.864;2023-07-09T09:04:30;8.05;;;5.25;;
71196;SDS011;58918;51.652;4.864;2023-07-09T09:09:43;8.23;;;4.82;;
71196;SDS011;58918;51.652;4.864;2023-07-09T09:12:19;9.80;;;4.72;;
71196;SDS011;58918;51.652;4.864;2023-07-09T09:14:57;7.20;;;4.00;;
71196;SDS011;58918;51.652;4.864;2023-07-09T09:17:25;8.13;;;4.63;;
71196;SDS011;58918;51.652;4.864;2023-07-09T09:19:56;8.40;;;4.78;;
71196;SDS011;58918;51.652;4.864;2023-07-09T09:22:25;8.00;;;5.00;;
71196;SDS011;58918;51.652;4.864;2023-07-09T09:27:31;7.60;;;4.85;;
71196;SDS011;58918;51.652;4.864;2023-07-09T09:29:58;9.07;;;4.32;;
71196;SDS011;58918;51.652;4.864;2023-07-09T09:32:26;9.20;;;4.65;;
71196;SDS011;58918;51.652;4.864;2023-07-09T09:34:54;8.57;;;5.05;;
71196;SDS011;58918;51.652;4.864;2023-07-09T09:37:24;9.68;;;4.68;;
71196;SDS011;58918;51.652;4.864;2023-07-09T09:39:52;9.18;;;4.50;;
71196;SDS011;58918;51.652;4.864;2023-07-09T09:42:38;8.57;;;4.72;;
71196;SDS011;58918;51.652;4.864;2023-07-09T09:45:08;9.02;;;4.85;;
71196;SDS011;58918;51.652;4.864;2023-07-09T09:47:38;7.88;;;4.95;;
71196;SDS011;58918;51.652;4.864;2023-07-09T09:50:05;9.20;;;4.70;;
71196;SDS011;58918;51.652;4.864;2023-07-09T09:52:32;9.50;;;4.95;;
71196;SDS011;58918;51.652;4.864;2023-07-09T09:55:10;10.38;;;4.97;;
71196;SDS011;58918;51.652;4.864;2023-07-09T09:57:38;7.97;;;5.00;;
71196;SDS011;58918;51.652;4.864;2023-07-09T10:00:05;8.55;;;4.60;;
71196;SDS011;58918;51.652;4.864;2023-07-09T10:02:38;9.30;;;4.45;;
71196;SDS011;58918;51.652;4.864;2023-07-09T10:05:11;9.30;;;4.75;;
71196;SDS011;58918;51.652;4.864;2023-07-09T10:08:00;7.53;;;4.82;;
71196;SDS011;58918;51.652;4.864;2023-07-09T10:10:30;8.00;;;5.00;;
71196;SDS011;58918;51.652;4.864;2023-07-09T10:18:17;8.70;;;4.93;;
71196;SDS011;58918;51.652;4.864;2023-07-09T10:23:51;9.27;;;5.22;;
71196;SDS011;58918;51.652;4.864;2023-07-09T10:27:03;10.00;;;5.45;;
71196;SDS011;58918;51.652;4.864;2023-07-09T10:29:30;7.63;;;4.70;;
71196;SDS011;58918;51.652;4.864;2023-07-09T10:32:04;9.02;;;5.20;;
71196;SDS011;58918;51.652;4.864;2023-07-09T10:39:34;7.85;;;4.57;;
71196;SDS011;58918;51.652;4.864;2023-07-09T10:42:03;9.48;;;5.28;;
71196;SDS011;58918;51.652;4.864;2023-07-09T10:46:58;15.35;;;5.97;;
71196;SDS011;58918;51.652;4.864;2023-07-09T10:49:30;10.07;;;5.35;;
71196;SDS011;58918;51.652;4.864;2023-07-09T10:54:55;8.40;;;5.15;;
71196;SDS011;58918;51.652;4.864;2023-07-09T10:57:34;10.20;;;5.07;;
71196;SDS011;58918;51.652;4.864;2023-07-09T11:00:04;8.52;;;5.10;;
71196;SDS011;58918;51.652;4.864;2023-07-09T11:02:34;9.32;;;5.07;;
71196;SDS011;58918;51.652;4.864;2023-07-09T11:05:03;9.02;;;5.32;;
71196;SDS011;58918;51.652;4.864;2023-07-09T11:10:07;7.75;;;4.78;;
71196;SDS011;58918;51.652;4.864;2023-07-09T11:12:38;10.18;;;5.50;;
71196;SDS011;58918;51.652;4.864;2023-07-09T11:15:16;9.60;;;5.20;;
71196;SDS011;58918;51.652;4.864;2023-07-09T11:17:45;8.70;;;4.57;;
71196;SDS011;58918;51.652;4.864;2023-07-09T11:20:17;9.68;;;5.25;;
71196;SDS011;58918;51.652;4.864;2023-07-09T11:22:51;10.50;;;5.40;;
71196;SDS011;58918;51.652;4.864;2023-07-09T11:25:40;11.90;;;5.20;;
71196;SDS011;58918;51.652;4.864;2023-07-09T11:28:11;9.82;;;5.30;;
71196;SDS011;58918;51.652;4.864;2023-07-09T11:30:45;9.32;;;4.95;;
71196;SDS011;58918;51.652;4.864;2023-07-09T11:33:20;10.32;;;5.47;;
71196;SDS011;58918;51.652;4.864;2023-07-09T11:35:54;8.45;;;5.05;;
71196;SDS011;58918;51.652;4.864;2023-07-09T11:38:38;7.85;;;4.65;;
71196;SDS011;58918;51.652;4.864;2023-07-09T11:44:00;8.63;;;5.30;;
71196;SDS011;58918;51.652;4.864;2023-07-09T11:46:29;10.50;;;5.35;;
71196;SDS011;58918;51.652;4.864;2023-07-09T11:48:57;12.30;;;5.97;;
71196;SDS011;58918;51.652;4.864;2023-07-09T11:51:37;9.65;;;5.88;;
71196;SDS011;58918;51.652;4.864;2023-07-09T11:54:07;10.57;;;5.45;;
71196;SDS011;58918;51.652;4.864;2023-07-09T11:56:38;10.52;;;5.80;;
71196;SDS011;58918;51.652;4.864;2023-07-09T11:59:05;9.20;;;5.53;;
71196;SDS011;58918;51.652;4.864;2023-07-09T12:01:42;9.68;;;5.45;;
71196;SDS011;58918;51.652;4.864;2023-07-09T12:04:13;11.05;;;5.22;;
71196;SDS011;58918;51.652;4.864;2023-07-09T12:06:42;8.65;;;5.07;;
71196;SDS011;58918;51.652;4.864;2023-07-09T12:09:13;9.00;;;5.45;;
71196;SDS011;58918;51.652;4.864;2023-07-09T12:11:43;11.38;;;5.30;;
71196;SDS011;58918;51.652;4.864;2023-07-09T12:14:12;9.15;;;5.40;;
71196;SDS011;58918;51.652;4.864;2023-07-09T12:16:43;8.88;;;4.30;;
71196;SDS011;58918;51.652;4.864;2023-07-09T12:19:16;9.90;;;5.00;;
71196;SDS011;58918;51.652;4.864;2023-07-09T12:21:45;9.10;;;4.90;;
71196;SDS011;58918;51.652;4.864;2023-07-09T12:26:53;8.10;;;4.75;;
71196;SDS011;58918;51.652;4.864;2023-07-09T12:29:24;7.32;;;4.20;;
71196;SDS011;58918;51.652;4.864;2023-07-09T12:31:51;8.90;;;4.53;;
71196;SDS011;58918;51.652;4.864;2023-07-09T12:34:19;7.57;;;4.38;;
71196;SDS011;58918;51.652;4.864;2023-07-09T12:36:48;8.30;;;4.22;;
71196;SDS011;58918;51.652;4.864;2023-07-09T12:39:26;8.43;;;4.03;;
71196;SDS011;58918;51.652;4.864;2023-07-09T12:41:54;7.45;;;4.22;;
71196;SDS011;58918;51.652;4.864;2023-07-09T12:44:22;7.72;;;3.80;;
71196;SDS011;58918;51.652;4.864;2023-07-09T12:46:50;7.80;;;3.95;;
71196;SDS011;58918;51.652;4.864;2023-07-09T12:54:13;7.45;;;3.80;;
71196;SDS011;58918;51.652;4.864;2023-07-09T12:56:41;5.93;;;3.30;;
71196;SDS011;58918;51.652;4.864;2023-07-09T12:59:15;6.80;;;3.20;;
71196;SDS011;58918;51.652;4.864;2023-07-09T13:02:05;9.23;;;3.67;;
71196;SDS011;58918;51.652;4.864;2023-07-09T13:04:38;6.95;;;3.70;;
71196;SDS011;58918;51.652;4.864;2023-07-09T13:07:18;5.50;;;2.47;;
71196;SDS011;58918;51.652;4.864;2023-07-09T13:09:52;5.55;;;2.90;;
71196;SDS011;58918;51.652;4.864;2023-07-09T13:12:20;7.43;;;3.30;;
71196;SDS011;58918;51.652;4.864;2023-07-09T13:14:54;7.72;;;2.78;;
71196;SDS011;58918;51.652;4.864;2023-07-09T13:17:29;5.47;;;2.70;;
71196;SDS011;58918;51.652;4.864;2023-07-09T13:19:57;7.55;;;2.90;;
71196;SDS011;58918;51.652;4.864;2023-07-09T13:22:28;6.00;;;2.92;;
71196;SDS011;58918;51.652;4.864;2023-07-09T13:24:55;5.82;;;2.63;;
71196;SDS011;58918;51.652;4.864;2023-07-09T13:27:22;7.15;;;2.90;;
71196;SDS011;58918;51.652;4.864;2023-07-09T13:29:50;10.07;;;3.08;;
71196;SDS011;58918;51.652;4.864;2023-07-09T13:32:18;10.10;;;3.20;;
71196;SDS011;58918;51.652;4.864;2023-07-09T13:34:45;10.38;;;2.97;;
71196;SDS011;58918;51.652;4.864;2023-07-09T13:37:14;13.68;;;3.92;;
71196;SDS011;58918;51.652;4.864;2023-07-09T13:42:12;16.27;;;3.72;;
71196;SDS011;58918;51.652;4.864;2023-07-09T13:44:40;17.38;;;3.38;;
71196;SDS011;58918;51.652;4.864;2023-07-09T13:47:10;11.88;;;3.30;;
71196;SDS011;58918;51.652;4.864;2023-07-09T13:49:38;12.18;;;3.20;;
71196;SDS011;58918;51.652;4.864;2023-07-09T13:52:08;9.23;;;3.35;;
71196;SDS011;58918;51.652;4.864;2023-07-09T13:54:36;11.50;;;2.88;;
71196;SDS011;58918;51.652;4.864;2023-07-09T13:57:05;10.75;;;2.78;;
71196;SDS011;58918;51.652;4.864;2023-07-09T13:59:32;11.60;;;3.25;;
71196;SDS011;58918;51.652;4.864;2023-07-09T14:01:59;11.73;;;2.80;;
71196;SDS011;58918;51.652;4.864;2023-07-09T14:04:30;8.43;;;3.00;;
71196;SDS011;58918;51.652;4.864;2023-07-09T14:06:57;12.02;;;2.75;;
71196;SDS011;58918;51.652;4.864;2023-07-09T14:09:25;8.82;;;2.90;;
71196;SDS011;58918;51.652;4.864;2023-07-09T14:11:53;10.68;;;3.25;;
71196;SDS011;58918;51.652;4.864;2023-07-09T14:14:21;10.18;;;3.13;;
71196;SDS011;58918;51.652;4.864;2023-07-09T14:19:20;9.68;;;2.78;;
71196;SDS011;58918;51.652;4.864;2023-07-09T14:21:48;10.25;;;2.67;;
71196;SDS011;58918;51.652;4.864;2023-07-09T14:24:19;8.70;;;3.00;;
71196;SDS011;58918;51.652;4.864;2023-07-09T14:26:47;6.97;;;2.80;;
71196;SDS011;58918;51.652;4.864;2023-07-09T14:29:15;10.57;;;2.90;;
71196;SDS011;58918;51.652;4.864;2023-07-09T14:31:42;8.13;;;2.92;;
71196;SDS011;58918;51.652;4.864;2023-07-09T14:36:43;7.13;;;2.80;;
71196;SDS011;58918;51.652;4.864;2023-07-09T14:39:10;6.97;;;2.53;;
71196;SDS011;58918;51.652;4.864;2023-07-09T14:41:38;9.05;;;2.95;;
71196;SDS011;58918;51.652;4.864;2023-07-09T14:44:12;7.15;;;2.60;;
71196;SDS011;58918;51.652;4.864;2023-07-09T14:46:42;9.20;;;3.10;;
71196;SDS011;58918;51.652;4.864;2023-07-09T14:49:09;8.15;;;2.97;;
71196;SDS011;58918;51.652;4.864;2023-07-09T14:51:37;7.30;;;3.28;;
71196;SDS011;58918;51.652;4.864;2023-07-09T14:54:10;7.32;;;2.88;;
71196;SDS011;58918;51.652;4.864;2023-07-09T14:56:37;9.27;;;2.97;;
71196;SDS011;58918;51.652;4.864;2023-07-09T14:59:06;8.85;;;3.20;;
71196;SDS011;58918;51.652;4.864;2023-07-09T15:01:33;8.60;;;3.25;;
71196;SDS011;58918;51.652;4.864;2023-07-09T15:04:05;7.03;;;3.00;;
71196;SDS011;58918;51.652;4.864;2023-07-09T15:06:40;7.85;;;3.55;;
71196;SDS011;58918;51.652;4.864;2023-07-09T15:09:07;9.00;;;3.33;;
71196;SDS011;58918;51.652;4.864;2023-07-09T15:11:35;7.70;;;3.72;;
71196;SDS011;58918;51.652;4.864;2023-07-09T15:14:07;7.90;;;3.28;;
71196;SDS011;58918;51.652;4.864;2023-07-09T15:16:35;9.88;;;3.40;;
71196;SDS011;58918;51.652;4.864;2023-07-09T15:19:12;10.93;;;3.17;;
71196;SDS011;58918;51.652;4.864;2023-07-09T15:21:39;12.27;;;4.00;;
71196;SDS011;58918;51.652;4.864;2023-07-09T15:26:48;8.68;;;3.40;;
71196;SDS011;58918;51.652;4.864;2023-07-09T15:29:16;8.60;;;2.67;;
71196;SDS011;58918;51.652;4.864;2023-07-09T15:31:43;7.60;;;2.92;;
71196;SDS011;58918;51.652;4.864;2023-07-09T15:34:10;8.82;;;3.13;;
71196;SDS011;58918;51.652;4.864;2023-07-09T15:36:41;6.38;;;2.90;;
71196;SDS011;58918;51.652;4.864;2023-07-09T15:39:10;7.10;;;2.90;;
71196;SDS011;58918;51.652;4.864;2023-07-09T15:41:40;7.43;;;3.17;;
71196;SDS011;58918;51.652;4.864;2023-07-09T15:44:13;8.68;;;2.72;;
71196;SDS011;58918;51.652;4.864;2023-07-09T15:46:42;7.00;;;2.95;;
71196;SDS011;58918;51.652;4.864;2023-07-09T15:49:11;8.52;;;3.45;;
71196;SDS011;58918;51.652;4.864;2023-07-09T15:51:39;10.00;;;3.38;;
71196;SDS011;58918;51.652;4.864;2023-07-09T15:54:16;8.23;;;3.25;;
71196;SDS011;58918;51.652;4.864;2023-07-09T15:56:44;10.45;;;3.70;;
71196;SDS011;58918;51.652;4.864;2023-07-09T15:59:33;7.72;;;3.30;;
71196;SDS011;58918;51.652;4.864;2023-07-09T16:02:00;11.50;;;3.22;;
71196;SDS011;58918;51.652;4.864;2023-07-09T16:04:27;8.15;;;2.83;;